Time;durP1;ratioP1;P1;durP2;ratioP2;P2;SDS_P1;SDS_P2;PMS_P1;PMS_P2;Temp;Humidity;BMP_temperature;BMP_pressure;BME280_temperature;BME280_humidity;BME280_pressure;Samples;Min_cycle;Max_cycle;Signal;HPM_P1;HPM_P2
2021/01/10 00:00:02;;;;;;;54.33;23.27;;;;;;;0.34;100.00;99625.86;4296992;80;44219;-81
2021/01/10 00:06:09;;;;;;;49.88;23.47;;;;;;;0.31;100.00;99622.20;4267468;82;44001;-78
2021/01/10 00:12:11;;;;;;;54.13;25.12;;;;;;;0.25;100.00;99628.41;4254164;81;43214;-78
2021/01/10 00:18:13;;;;;;;60.08;24.80;;;;;;;0.14;100.00;99625.98;4331672;80;43493;-82
2021/01/10 00:24:16;;;;;;;54.27;23.95;;;;;;;0.20;100.00;99635.98;4243801;81;44080;-80
2021/01/10 00:30:21;;;;;;;57.55;24.32;;;;;;;0.08;100.00;99637.98;4304085;80;44173;-79
2021/01/10 00:36:36;;;;;;;56.37;24.95;;;;;;;0.11;100.00;99642.16;4254737;81;44418;-78
2021/01/10 00:42:42;;;;;;;53.42;24.18;;;;;;;-0.03;100.00;99649.61;4312113;80;44074;-79
2021/01/10 00:48:43;;;;;;;;;;;;;;;-0.07;100.00;99650.05;4274321;82;28568;-79
2021/01/10 00:54:46;;;;;;;60.65;25.27;;;;;;;-0.01;100.00;99655.58;4238975;83;42258;-79
2021/01/10 01:00:48;;;;;;;64.27;26.45;;;;;;;-0.16;100.00;99659.20;4336375;82;43274;-82
2021/01/10 01:06:52;;;;;;;65.90;27.85;;;;;;;-0.18;100.00;99665.13;4239043;81;43445;-82
2021/01/10 01:12:54;;;;;;;64.32;26.35;;;;;;;-0.15;100.00;99664.83;4291436;80;42922;-82
2021/01/10 01:18:57;;;;;;;61.50;26.05;;;;;;;-0.19;100.00;99671.39;4308364;80;42929;-81
2021/01/10 01:25:01;;;;;;;64.53;26.68;;;;;;;-0.26;100.00;99666.34;4310014;82;43211;-81
2021/01/10 01:31:05;;;;;;;55.73;25.23;;;;;;;-0.31;100.00;99661.48;4310559;80;43270;-81
2021/01/10 01:37:07;;;;;;;65.95;27.87;;;;;;;-0.27;100.00;99660.70;4251475;83;43400;-81
2021/01/10 01:43:10;;;;;;;74.95;31.02;;;;;;;-0.08;100.00;99661.10;4334689;82;29031;-82
2021/01/10 01:49:13;;;;;;;72.12;30.75;;;;;;;0.09;100.00;99664.77;4223756;83;44127;-83
2021/01/10 01:55:16;;;;;;;68.87;29.35;;;;;;;0.07;100.00;99661.95;4313232;82;28592;-80
2021/01/10 02:01:18;;;;;;;71.50;31.60;;;;;;;0.02;100.00;99669.48;4245269;83;28541;-81
2021/01/10 02:07:44;;;;;;;73.85;30.00;;;;;;;0.16;100.00;99662.87;4232677;83;44135;-80
2021/01/10 02:13:48;;;;;;;69.42;29.75;;;;;;;0.02;100.00;99665.52;4228633;82;28544;-80
2021/01/10 02:20:11;;;;;;;64.53;28.32;;;;;;;0.07;100.00;99672.53;4257723;81;28614;-79
2021/01/10 02:26:14;;;;;;;64.87;27.58;;;;;;;0.01;100.00;99664.70;4265586;82;28600;-78
2021/01/10 02:32:19;;;;;;;62.88;27.67;;;;;;;0.19;100.00;99659.92;4246938;83;43460;-78
2021/01/10 02:38:50;;;;;;;75.22;29.37;;;;;;;0.09;100.00;99659.48;4260010;83;28545;-79
2021/01/10 02:44:57;;;;;;;72.87;29.18;;;;;;;-0.01;100.00;99667.95;4238766;83;44106;-79
2021/01/10 02:50:59;;;;;;;78.00;32.10;;;;;;;0.09;100.00;99668.73;4243054;83;28553;-78
2021/01/10 02:57:15;;;;;;;71.17;30.27;;;;;;;0.01;100.00;99669.98;4243138;83;44079;-78
2021/01/10 03:03:15;;;;;;;73.20;30.17;;;;;;;0.00;100.00;99668.33;4223264;83;44155;-80
2021/01/10 03:09:18;;;;;;;69.00;29.90;;;;;;;0.00;100.00;99669.64;4234890;83;44123;-80
2021/01/10 03:15:22;;;;;;;67.70;28.77;;;;;;;0.01;100.00;99663.38;4245253;83;44099;-80
2021/01/10 03:21:23;;;;;;;64.47;28.92;;;;;;;-0.06;100.00;99660.46;4203061;84;43429;-80
2021/01/10 03:27:26;;;;;;;69.07;28.35;;;;;;;0.04;100.00;99651.17;4239047;81;44103;-78
2021/01/10 03:33:28;;;;;;;66.28;27.75;;;;;;;0.07;100.00;99658.80;4200947;84;43438;-78
2021/01/10 03:39:30;;;;;;;69.32;27.60;;;;;;;-0.03;100.00;99661.51;4275468;82;28589;-78
2021/01/10 03:45:33;;;;;;;67.20;27.80;;;;;;;0.03;100.00;99661.41;4202547;82;43780;-79
2021/01/10 03:51:35;;;;;;;60.08;26.82;;;;;;;-0.01;100.00;99663.52;4190898;84;43541;-80
2021/01/10 03:57:39;;;;;;;68.70;27.67;;;;;;;0.03;100.00;99664.53;4263213;83;44111;-80
2021/01/10 04:03:42;;;;;;;65.37;25.48;;;;;;;-0.14;100.00;99661.70;4241105;83;42920;-81
2021/01/10 04:09:45;;;;;;;63.25;26.37;;;;;;;-0.05;100.00;99666.12;4259926;83;28554;-80
2021/01/10 04:15:47;;;;;;;62.65;25.45;;;;;;;-0.12;100.00;99677.40;4216064;83;42870;-80
2021/01/10 04:21:49;;;;;;;58.98;25.43;;;;;;;-0.20;100.00;99676.81;4256697;83;42528;-80
2021/01/10 04:27:51;;;;;;;62.62;26.95;;;;;;;-0.13;100.00;99669.12;4266682;82;43431;-80
2021/01/10 04:33:54;;;;;;;61.83;25.37;;;;;;;-0.09;100.00;99668.70;4251988;83;28687;-81
2021/01/10 04:39:55;;;;;;;56.55;24.87;;;;;;;-0.18;100.00;99674.38;4232122;83;44120;-80
2021/01/10 04:45:58;;;;;;;63.17;25.35;;;;;;;-0.21;100.00;99681.76;4267293;83;43760;-81
2021/01/10 04:52:03;;;;;;;56.23;23.87;;;;;;;-0.04;100.00;99675.71;4247204;83;44147;-81
2021/01/10 04:58:07;;;;;;;62.00;25.30;;;;;;;-0.15;100.00;99682.01;4223367;83;42767;-80
2021/01/10 05:04:11;;;;;;;51.70;21.82;;;;;;;-0.10;100.00;99675.47;4254491;83;28546;-80
2021/01/10 05:10:13;;;;;;;51.05;22.42;;;;;;;-0.17;100.00;99687.09;4239732;83;43764;-79
2021/01/10 05:16:20;;;;;;;49.15;20.60;;;;;;;-0.10;100.00;99690.01;4231368;83;44466;-79
2021/01/10 05:22:23;;;;;;;49.10;21.12;;;;;;;-0.09;100.00;99685.88;4242656;83;44435;-79
2021/01/10 05:28:25;;;;;;;50.73;21.82;;;;;;;-0.16;100.00;99688.27;4224285;83;44001;-80
2021/01/10 05:34:27;;;;;;;49.55;20.68;;;;;;;-0.30;100.00;99691.40;4226027;83;44478;-80
2021/01/10 05:40:31;;;;;;;49.80;20.55;;;;;;;-0.38;100.00;99696.06;4248022;83;44444;-82
2021/01/10 05:46:33;;;;;;;45.67;20.00;;;;;;;-0.47;100.00;99700.88;4239703;83;28573;-81
2021/01/10 05:52:36;;;;;;;46.83;20.68;;;;;;;-0.46;100.00;99696.78;4226206;83;43761;-81
2021/01/10 05:58:38;;;;;;;49.58;21.52;;;;;;;-0.68;100.00;99687.37;4243558;83;44033;-81
2021/01/10 06:04:40;;;;;;;56.02;22.67;;;;;;;-0.82;100.00;99695.74;4224895;83;44076;-81
2021/01/10 06:10:42;;;;;;;49.73;21.55;;;;;;;-0.90;100.00;99689.34;4226294;83;44052;-80
2021/01/10 06:16:52;;;;;;;70.20;26.82;;;;;;;-1.13;100.00;99695.42;4229924;83;44062;-81
2021/01/10 06:22:58;;;;;;;56.30;22.77;;;;;;;-1.27;100.00;99692.20;4246613;83;44138;-81
2021/01/10 06:29:08;;;;;;;47.33;20.52;;;;;;;-1.28;100.00;99695.00;4251689;81;28647;-81
2021/01/10 06:35:12;;;;;;;51.13;20.43;;;;;;;-1.60;100.00;99704.80;4291826;81;44011;-81
2021/01/10 06:41:28;;;;;;;53.20;21.45;;;;;;;-1.68;100.00;99711.23;4251811;82;44098;-82
2021/01/10 06:47:30;;;;;;;57.70;22.40;;;;;;;-1.86;100.00;99713.22;4311788;82;44082;-82
2021/01/10 06:53:32;;;;;;;50.55;20.97;;;;;;;-1.82;100.00;99735.69;4246477;82;44473;-82
2021/01/10 07:00:00;;;;;;;52.25;21.12;;;;;;;-2.01;100.00;99732.51;4304914;80;43833;-80
2021/01/10 07:06:10;;;;;;;48.33;20.57;;;;;;;-2.01;100.00;99747.00;4234610;81;43751;-80
2021/01/10 07:12:17;;;;;;;49.00;20.12;;;;;;;-2.08;100.00;99755.08;4229589;81;43810;-80
2021/01/10 07:18:20;;;;;;;44.98;19.77;;;;;;;-2.23;100.00;99757.72;4313836;82;43793;-80
2021/01/10 07:24:30;;;;;;;52.88;21.23;;;;;;;-2.24;100.00;99756.87;4236189;81;44037;-78
2021/01/10 07:30:32;;;;;;;46.08;19.10;;;;;;;-2.12;100.00;99766.86;4310051;80;43826;-79
2021/01/10 07:36:49;;;;;;;48.08;20.05;;;;;;;-2.11;100.00;99762.75;4250365;82;43747;-78
2021/01/10 07:43:02;;;;;;;47.15;20.52;;;;;;;-2.06;100.00;99770.77;4310571;80;43749;-79
2021/01/10 07:49:06;;;;;;;47.38;20.12;;;;;;;-2.09;100.00;99771.86;4252493;82;43760;-80
2021/01/10 07:55:20;;;;;;;48.15;19.73;;;;;;;-2.01;100.00;99779.09;4318461;80;43778;-78
2021/01/10 08:01:31;;;;;;;47.78;19.32;;;;;;;-2.00;100.00;99772.39;4321650;80;43784;-77
2021/01/10 08:07:51;;;;;;;48.38;19.80;;;;;;;-1.78;100.00;99767.05;4492688;79;85650;-80
2021/01/10 08:13:53;;;;;;;43.90;18.57;;;;;;;-1.69;100.00;99775.02;4410140;80;43728;-79
2021/01/10 08:19:56;;;;;;;43.52;18.73;;;;;;;-1.44;100.00;99781.27;4435760;80;43577;-79
2021/01/10 08:26:06;;;;;;;40.40;16.37;;;;;;;-1.41;100.00;99782.31;4413565;80;44458;-80
2021/01/10 08:32:10;;;;;;;36.95;15.75;;;;;;;-1.17;100.00;99779.78;4416033;80;44445;-79
2021/01/10 08:38:15;;;;;;;36.10;15.05;;;;;;;-1.07;100.00;99790.38;4401383;80;28580;-78
2021/01/10 08:44:23;;;;;;;32.75;14.75;;;;;;;-0.97;100.00;99796.50;4388333;80;44094;-77
2021/01/10 08:50:41;;;;;;;33.78;15.23;;;;;;;-0.81;100.00;99800.38;4413078;80;44107;-81
2021/01/10 08:56:46;;;;;;;30.20;14.03;;;;;;;-0.75;100.00;99805.94;4395577;80;43732;-82
2021/01/10 09:02:48;;;;;;;33.67;14.80;;;;;;;-0.61;100.00;99811.80;4423112;80;44081;-83
2021/01/10 09:08:56;;;;;;;35.38;15.20;;;;;;;-0.47;100.00;99809.20;4405097;80;44272;-82
2021/01/10 09:15:15;;;;;;;38.60;17.30;;;;;;;-0.39;100.00;99811.98;4375222;80;44508;-82
2021/01/10 09:21:25;;;;;;;46.37;20.88;;;;;;;-0.31;100.00;99808.15;4375776;80;43791;-80
2021/01/10 09:27:24;;;;;;;51.33;21.37;;;;;;;-0.19;100.00;99808.84;4401807;80;44027;-79
2021/01/10 09:33:31;;;;;;;58.95;25.35;;;;;;;-0.11;100.00;99808.59;4409980;80;43643;-79
2021/01/10 09:39:40;;;;;;;51.75;22.25;;;;;;;-0.06;100.00;99798.44;4400152;80;43820;-80
2021/01/10 09:45:42;;;;;;;48.55;20.05;;;;;;;0.05;100.00;99799.59;4396139;80;43734;-79
2021/01/10 09:52:00;;;;;;;43.28;19.27;;;;;;;0.21;100.00;99801.62;4410459;80;43752;-78
2021/01/10 09:58:08;;;;;;;45.40;22.15;;;;;;;0.33;100.00;99798.79;4417341;80;43780;-84
2021/01/10 10:04:10;;;;;;;46.33;21.52;;;;;;;0.37;100.00;99794.39;4397450;80;44126;-76
2021/01/10 10:10:26;;;;;;;43.42;20.85;;;;;;;0.57;100.00;99792.97;4386384;80;43832;-79
2021/01/10 10:16:30;;;;;;;55.15;23.02;;;;;;;0.68;100.00;99791.95;4414658;80;44089;-80
2021/01/10 10:22:36;;;;;;;52.93;22.37;;;;;;;0.64;100.00;99793.20;4422797;80;38281;-76
2021/01/10 10:28:38;;;;;;;48.65;21.80;;;;;;;0.66;100.00;99785.95;4424278;80;44465;-80
2021/01/10 10:34:40;;;;;;;59.35;25.57;;;;;;;0.88;100.00;99774.12;4405120;80;28613;-80
2021/01/10 10:40:42;;;;;;;50.33;21.60;;;;;;;0.74;100.00;99772.81;4425575;80;44016;-80
2021/01/10 10:46:45;;;;;;;53.58;22.85;;;;;;;0.70;100.00;99766.16;4399054;80;44580;-81
2021/01/10 10:52:48;;;;;;;57.08;24.47;;;;;;;0.73;100.00;99756.59;4415617;80;44132;-80
2021/01/10 10:58:50;;;;;;;54.95;24.23;;;;;;;0.61;100.00;99753.81;4403789;80;44084;-80
2021/01/10 11:04:52;;;;;;;57.88;23.90;;;;;;;0.76;100.00;99745.69;4420821;80;44082;-80
2021/01/10 11:10:54;;;;;;;59.73;25.97;;;;;;;0.66;100.00;99743.13;4419801;80;28544;-80
2021/01/10 11:16:56;;;;;;;61.37;25.95;;;;;;;0.68;100.00;99739.02;4429585;80;42865;-80
2021/01/10 11:23:00;;;;;;;61.28;27.55;;;;;;;0.81;100.00;99730.69;4407373;80;43445;-80
2021/01/10 11:29:04;;;;;;;58.52;25.92;;;;;;;0.94;100.00;99735.14;4369447;80;28576;-81
2021/01/10 11:35:07;;;;;;;54.98;25.27;;;;;;;1.07;100.00;99733.92;4414438;80;43246;-81
2021/01/10 11:41:12;;;;;;;50.98;21.17;;;;;;;1.13;100.00;99736.45;4387844;80;44426;-81
2021/01/10 11:47:14;;;;;;;55.98;24.25;;;;;;;0.95;100.00;99738.60;4401788;80;28658;-80
2021/01/10 11:53:17;;;;;;;48.58;21.75;;;;;;;0.83;100.00;99735.33;4395938;80;44471;-80
2021/01/10 11:59:19;;;;;;;49.13;21.62;;;;;;;0.83;100.00;99734.86;4389335;80;28619;-80
2021/01/10 12:05:21;;;;;;;50.20;21.60;;;;;;;0.77;100.00;99731.98;4395207;80;44421;-77
2021/01/10 12:11:24;;;;;;;44.73;19.87;;;;;;;0.92;100.00;99731.78;4423423;80;28571;-77
2021/01/10 12:17:27;;;;;;;47.15;20.37;;;;;;;1.09;100.00;99730.14;4408556;80;28545;-83
2021/01/10 12:23:29;;;;;;;45.40;19.52;;;;;;;1.33;100.00;99733.97;4434892;80;28572;-81
2021/01/10 12:29:31;;;;;;;36.33;16.25;;;;;;;1.50;100.00;99723.47;4435829;80;28535;-79
2021/01/10 12:35:34;;;;;;;39.18;17.20;;;;;;;1.63;100.00;99723.06;4412822;80;28579;-81
2021/01/10 12:41:36;;;;;;;38.15;16.97;;;;;;;1.67;100.00;99712.00;4432982;80;44426;-80
2021/01/10 12:47:46;;;;;;;36.73;15.60;;;;;;;1.69;100.00;99716.31;4425312;80;28594;-81
2021/01/10 12:53:48;;;;;;;15.15;6.58;;;;;;;1.64;100.00;99711.47;4427909;80;28585;-80
2021/01/10 12:59:50;;;;;;;13.60;5.97;;;;;;;1.71;88.04;99722.28;4418340;80;28541;-78
2021/01/10 13:05:52;;;;;;;14.10;6.95;;;;;;;1.74;84.72;99720.16;4425840;80;28545;-78
2021/01/10 13:12:00;;;;;;;10.10;4.58;;;;;;;1.79;89.33;99721.86;4428043;80;28539;-78
2021/01/10 13:18:03;;;;;;;14.87;5.92;;;;;;;1.83;82.30;99725.51;4434878;80;28584;-78
2021/01/10 13:24:06;;;;;;;15.20;7.15;;;;;;;1.90;85.79;99726.04;4430418;80;28572;-80
2021/01/10 13:30:09;;;;;;;17.15;8.58;;;;;;;1.91;83.41;99730.35;4427635;80;28637;-83
2021/01/10 13:36:15;;;;;;;21.30;9.68;;;;;;;1.92;87.31;99722.73;4426873;80;28546;-75
2021/01/10 13:42:17;;;;;;;19.20;9.30;;;;;;;1.99;91.67;99718.13;4422723;80;28598;-75
2021/01/10 13:48:19;;;;;;;16.40;7.95;;;;;;;2.01;91.64;99718.80;4446323;80;28548;-75
2021/01/10 13:54:21;;;;;;;18.67;9.03;;;;;;;1.76;87.63;99717.36;4439846;80;28599;-76
2021/01/10 14:00:26;;;;;;;20.48;9.08;;;;;;;1.74;90.15;99723.31;4420365;80;28587;-79
2021/01/10 14:06:28;;;;;;;22.80;9.80;;;;;;;1.37;90.87;99721.25;4401477;80;28579;-76
2021/01/10 14:12:30;;;;;;;23.60;10.50;;;;;;;1.34;96.84;99721.05;4424690;79;28537;-78
2021/01/10 14:18:32;;;;;;;20.75;8.55;;;;;;;1.01;97.36;99731.39;4431801;80;28608;-78
2021/01/10 14:24:37;;;;;;;19.52;8.58;;;;;;;0.81;94.29;99718.77;4423234;80;28564;-80
2021/01/10 14:30:41;;;;;;;20.35;9.78;;;;;;;0.74;97.83;99723.84;4413470;79;28597;-81
2021/01/10 14:36:43;;;;;;;18.60;8.93;;;;;;;0.59;98.65;99725.34;4425942;80;43901;-78
2021/01/10 14:42:46;;;;;;;20.70;9.33;;;;;;;0.45;100.00;99732.80;4427838;80;28621;-77
2021/01/10 14:48:50;;;;;;;18.17;8.10;;;;;;;0.31;100.00;99725.36;4434545;80;43984;-78
2021/01/10 14:54:52;;;;;;;16.57;8.25;;;;;;;0.10;100.00;99729.89;4436195;80;28537;-77
2021/01/10 15:00:54;;;;;;;18.85;8.50;;;;;;;-0.01;100.00;99734.89;4433611;80;28568;-79
2021/01/10 15:06:56;;;;;;;19.90;9.20;;;;;;;-0.18;100.00;99734.32;4434611;80;28679;-78
2021/01/10 15:12:58;;;;;;;17.15;8.93;;;;;;;-0.44;100.00;99734.96;4426207;80;43964;-81
2021/01/10 15:19:00;;;;;;;22.42;9.68;;;;;;;-0.43;100.00;99738.77;4409768;80;43929;-78
2021/01/10 15:25:03;;;;;;;17.67;9.50;;;;;;;-0.55;100.00;99737.77;4409943;80;43903;-80
2021/01/10 15:31:05;;;;;;;22.95;9.40;;;;;;;-0.72;100.00;99742.78;4421603;80;43929;-76
2021/01/10 15:37:08;;;;;;;22.37;9.63;;;;;;;-0.88;100.00;99744.66;4420793;80;43965;-79
2021/01/10 15:43:12;;;;;;;24.37;9.68;;;;;;;-0.97;100.00;99744.17;4420913;80;28578;-80
2021/01/10 15:49:14;;;;;;;23.42;9.68;;;;;;;-1.07;100.00;99742.86;4417422;80;44225;-80
2021/01/10 15:55:16;;;;;;;20.88;9.65;;;;;;;-1.20;100.00;99741.80;4420092;80;43902;-78
2021/01/10 16:01:19;;;;;;;20.25;9.35;;;;;;;-1.43;100.00;99738.91;4418330;80;43947;-78
2021/01/10 16:07:22;;;;;;;21.20;10.30;;;;;;;-1.57;100.00;99736.67;4411234;80;44438;-77
2021/01/10 16:13:24;;;;;;;25.02;10.98;;;;;;;-1.72;100.00;99740.16;4414069;80;43671;-77
2021/01/10 16:19:27;;;;;;;26.82;11.30;;;;;;;-1.77;100.00;99738.40;4410689;80;43118;-78
2021/01/10 16:25:30;;;;;;;22.93;9.68;;;;;;;-1.85;100.00;99741.24;4408394;80;43945;-77
2021/01/10 16:37:51;;;;;;;24.92;11.33;;;;;;;-2.03;100.00;99734.92;4591332;76;77147;-78
2021/01/10 16:43:53;;;;;;;26.42;11.48;;;;;;;-2.16;100.00;99740.40;4488531;78;43068;-77
2021/01/10 16:49:55;;;;;;;27.77;11.15;;;;;;;-2.25;100.00;99752.06;4506664;78;43433;-77
2021/01/10 16:55:59;;;;;;;28.05;10.90;;;;;;;-2.21;100.00;99745.24;4486077;78;43447;-77
2021/01/10 17:02:01;;;;;;;24.10;10.75;;;;;;;-2.41;100.00;99748.58;4502787;78;42865;-77
2021/01/10 17:08:04;;;;;;;28.12;11.48;;;;;;;-2.46;100.00;99745.98;4494180;78;43380;-77
2021/01/10 17:14:08;;;;;;;29.52;12.18;;;;;;;-2.52;100.00;99760.50;4499964;78;43409;-76
2021/01/10 17:20:12;;;;;;;27.45;11.70;;;;;;;-2.66;100.00;99757.23;4479875;78;43767;-77
2021/01/10 17:26:16;;;;;;;37.90;12.37;;;;;;;-2.70;100.00;99765.52;4488920;78;44421;-75
2021/01/10 17:32:18;;;;;;;25.90;12.28;;;;;;;-2.78;100.00;99759.58;4496377;78;43039;-76
2021/01/10 17:38:20;;;;;;;31.27;12.78;;;;;;;-2.78;100.00;99767.94;4486201;78;43444;-76
2021/01/10 17:44:23;;;;;;;29.07;12.33;;;;;;;-2.81;100.00;99758.52;4490809;78;43464;-79
2021/01/10 17:50:28;;;;;;;30.23;12.75;;;;;;;-2.91;100.00;99766.31;4485604;78;43406;-76
2021/01/10 17:56:30;;;;;;;29.00;12.07;;;;;;;-3.05;100.00;99772.70;4483549;78;43423;-76
2021/01/10 18:02:32;;;;;;;30.45;12.55;;;;;;;-3.12;100.00;99773.69;4494008;79;43403;-76
2021/01/10 18:08:35;;;;;;;30.45;12.50;;;;;;;-3.19;100.00;99783.52;4476123;78;43403;-77
2021/01/10 18:14:38;;;;;;;31.07;13.20;;;;;;;-3.13;100.00;99781.69;4498086;78;43427;-77
2021/01/10 18:20:41;;;;;;;31.37;12.70;;;;;;;-3.21;100.00;99774.42;4498461;78;43391;-77
2021/01/10 18:26:43;;;;;;;31.12;14.60;;;;;;;-3.13;100.00;99784.33;4499059;78;44152;-77
2021/01/10 18:32:46;;;;;;;35.65;14.65;;;;;;;-3.18;100.00;99789.14;4495226;77;44420;-78
2021/01/10 18:38:48;;;;;;;36.35;14.30;;;;;;;-3.33;100.00;99790.73;4482180;78;44458;-78
2021/01/10 18:44:51;;;;;;;40.83;15.60;;;;;;;-3.44;100.00;99783.69;4464731;78;44480;-77
2021/01/10 18:50:53;;;;;;;47.55;18.48;;;;;;;-3.51;100.00;99775.45;4476570;78;43731;-78
2021/01/10 18:56:57;;;;;;;34.33;14.73;;;;;;;-3.53;100.00;99766.02;4493964;78;44090;-80
2021/01/10 19:02:59;;;;;;;47.98;18.55;;;;;;;-3.65;100.00;99767.34;4483134;78;43762;-79
2021/01/10 19:09:03;;;;;;;40.25;16.05;;;;;;;-3.55;100.00;99761.36;4496150;78;44464;-77
2021/01/10 19:15:06;;;;;;;41.23;16.60;;;;;;;-3.67;100.00;99760.06;4503592;78;44519;-76
2021/01/10 19:21:09;;;;;;;42.03;17.20;;;;;;;-3.71;100.00;99762.55;4503109;78;44441;-76
2021/01/10 19:27:14;;;;;;;51.53;20.90;;;;;;;-3.71;100.00;99759.93;4483740;78;44020;-77
2021/01/10 19:33:16;;;;;;;51.37;20.20;;;;;;;-3.57;100.00;99756.21;4478661;78;28609;-77
2021/01/10 19:39:22;;;;;;;52.17;22.67;;;;;;;-3.51;100.00;99759.68;4497818;78;43975;-77
2021/01/10 19:45:24;;;;;;;44.60;19.00;;;;;;;-3.52;100.00;99758.02;4503835;78;43778;-77
2021/01/10 19:51:27;;;;;;;50.03;19.70;;;;;;;-3.67;100.00;99746.92;4497808;78;44438;-79
2021/01/10 19:57:29;;;;;;;44.10;18.07;;;;;;;-3.80;100.00;99747.51;4476355;78;43685;-78
2021/01/10 20:03:32;;;;;;;46.45;18.87;;;;;;;-3.85;100.00;99758.41;4486130;78;43782;-77
2021/01/10 20:09:34;;;;;;;49.73;18.45;;;;;;;-3.78;100.00;99760.08;4449694;78;43887;-77
2021/01/10 20:15:37;;;;;;;49.20;19.98;;;;;;;-3.80;100.00;99759.34;4468948;78;44191;-79
2021/01/10 20:21:39;;;;;;;53.65;21.23;;;;;;;-3.94;100.00;99753.38;4476816;78;44093;-77
2021/01/10 20:27:41;;;;;;;48.30;20.68;;;;;;;-3.93;100.00;99752.42;4474855;78;43780;-79
2021/01/10 20:33:43;;;;;;;49.45;20.02;;;;;;;-3.98;100.00;99745.85;4459917;78;44133;-75
2021/01/10 20:39:45;;;;;;;49.18;20.08;;;;;;;-4.24;100.00;99753.48;4469311;78;44077;-77
2021/01/10 20:45:49;;;;;;;46.58;19.05;;;;;;;-4.33;100.00;99751.55;4497999;78;43762;-81
2021/01/10 20:51:52;;;;;;;50.75;20.48;;;;;;;-4.34;100.00;99746.80;4497183;78;44451;-81
2021/01/10 20:57:54;;;;;;;46.65;20.05;;;;;;;-4.35;100.00;99749.53;4481951;78;43769;-83
2021/01/10 21:03:58;;;;;;;49.58;20.30;;;;;;;-4.33;100.00;99746.30;4446870;78;44452;-81
2021/01/10 21:10:00;;;;;;;45.28;20.40;;;;;;;-4.46;100.00;99746.42;4492219;78;43915;-80
2021/01/10 21:16:03;;;;;;;49.50;20.37;;;;;;;-4.51;100.00;99752.02;4494504;78;44535;-80
2021/01/10 21:22:05;;;;;;;52.13;21.30;;;;;;;-4.44;100.00;99755.02;4479702;78;44249;-80
2021/01/10 21:28:07;;;;;;;50.80;21.20;;;;;;;-4.36;100.00;99751.80;4476130;78;44432;-79
2021/01/10 21:34:09;;;;;;;55.73;21.55;;;;;;;-4.46;100.00;99749.05;4507774;78;44124;-81
2021/01/10 21:40:13;;;;;;;47.25;20.80;;;;;;;-4.37;100.00;99742.25;4508701;78;43778;-81
2021/01/10 21:46:17;;;;;;;52.38;20.77;;;;;;;-4.38;100.00;99740.09;4496521;78;43739;-81
2021/01/10 21:52:19;;;;;;;49.73;22.00;;;;;;;-4.32;100.00;99740.13;4510366;78;44448;-79
2021/01/10 21:58:22;;;;;;;52.20;22.45;;;;;;;-4.28;100.00;99741.55;4484008;78;43976;-80
2021/01/10 22:04:24;;;;;;;53.20;21.55;;;;;;;-4.35;100.00;99739.02;4500614;78;44078;-79
2021/01/10 22:10:26;;;;;;;55.45;23.15;;;;;;;-4.32;100.00;99736.65;4500494;77;44074;-79
2021/01/10 22:16:28;;;;;;;49.90;21.50;;;;;;;-4.25;100.00;99732.61;4499115;78;44443;-80
2021/01/10 22:29:33;;;;;;;58.28;23.05;;;;;;;-4.11;100.00;99740.73;4391543;79;258369;-82
2021/01/10 22:35:35;;;;;;;55.80;22.02;;;;;;;-4.15;100.00;99747.16;4428452;79;44138;-82
2021/01/10 22:41:39;;;;;;;51.65;22.30;;;;;;;-4.14;100.00;99745.75;4245296;81;43892;-80
2021/01/10 22:47:41;;;;;;;55.08;22.48;;;;;;;-4.03;100.00;99748.02;4244779;81;44104;-80
2021/01/10 22:53:44;;;;;;;53.95;22.27;;;;;;;-4.04;100.00;99739.28;4282967;82;44112;-80
2021/01/10 22:59:46;;;;;;;58.15;23.35;;;;;;;-4.01;100.00;99739.53;4270899;81;44165;-81
2021/01/10 23:05:49;;;;;;;69.75;26.37;;;;;;;-3.96;100.00;99739.53;4331874;80;43383;-81
2021/01/10 23:11:53;;;;;;;58.68;23.22;;;;;;;-3.96;100.00;99741.30;4301433;81;44077;-81
2021/01/10 23:17:55;;;;;;;64.03;26.65;;;;;;;-3.93;100.00;99740.59;4322010;80;43258;-82
2021/01/10 23:23:57;;;;;;;63.83;25.23;;;;;;;-3.93;100.00;99745.03;4343072;80;43777;-81
2021/01/10 23:30:00;;;;;;;76.82;29.27;;;;;;;-3.97;100.00;99742.27;4338507;79;43739;-80
2021/01/10 23:36:02;;;;;;;90.05;32.30;;;;;;;-3.88;100.00;99740.23;4310530;81;44188;-80
2021/01/10 23:42:05;;;;;;;74.30;28.10;;;;;;;-3.90;100.00;99746.56;4279134;81;44146;-78
2021/01/10 23:48:12;;;;;;;73.67;30.02;;;;;;;-3.94;100.00;99736.30;4318466;81;44092;-78
2021/01/10 23:54:15;;;;;;;64.97;25.52;;;;;;;-4.13;100.00;99732.97;4335998;81;43735;-78
